Time;durP1;ratioP1;P1;durP2;ratioP2;P2;SDS_P1;SDS_P2;PMS_P1;PMS_P2;Temp;Humidity;BMP_temperature;BMP_pressure;BME280_temperature;BME280_humidity;BME280_pressure;Samples;Min_cycle;Max_cycle;Signal;HPM_P1;HPM_P2
2023/03/22 07:33:11;;;;;;;8.82;3.78;;;10.30;98.10;;;;;;6159656;23;20051;-78
2023/03/22 07:36:13;;;;;;;6.40;3.28;;;10.40;97.90;;;;;;6154350;29;20051;-78
2023/03/22 07:39:15;;;;;;;5.82;3.40;;;10.40;97.80;;;;;;6153993;29;20055;-78
2023/03/22 07:42:17;;;;;;;6.13;3.50;;;10.50;97.70;;;;;;6154190;29;20051;-79
2023/03/22 07:45:20;;;;;;;6.03;3.63;;;10.60;97.90;;;;;;6154472;28;20043;-80
2023/03/22 07:48:24;;;;;;;8.77;3.88;;;10.60;98.10;;;;;;6154057;28;20409;-80
2023/03/22 07:51:25;;;;;;;;;;;10.70;98.10;;;;;;6154670;29;20047;-81
2023/03/22 07:54:27;;;;;;;6.57;3.40;;;10.70;98.40;;;;;;6153672;28;19922;-78
2023/03/22 07:57:29;;;;;;;5.60;2.90;;;10.70;97.90;;;;;;6153717;28;20047;-79
2023/03/22 08:00:31;;;;;;;6.57;3.17;;;10.70;96.80;;;;;;6153568;28;20137;-78
2023/03/22 08:03:35;;;;;;;6.47;2.88;;;10.80;96.80;;;;;;6153681;28;20058;-80
2023/03/22 08:06:39;;;;;;;4.70;3.00;;;10.90;96.70;;;;;;6153352;28;20048;-81
2023/03/22 08:09:41;;;;;;;6.95;3.22;;;11.00;96.50;;;;;;6153553;28;20105;-81
2023/03/22 08:12:43;;;;;;;5.50;3.05;;;11.10;96.40;;;;;;6153623;29;20067;-80
2023/03/22 08:15:45;;;;;;;5.88;3.00;;;11.30;96.00;;;;;;6153198;28;20059;-78
2023/03/22 08:18:49;;;;;;;7.25;3.13;;;11.30;95.40;;;;;;6153198;28;20416;-79
2023/03/22 08:21:51;;;;;;;5.15;2.38;;;11.40;94.60;;;;;;6152985;28;20058;-77
2023/03/22 08:24:52;;;;;;;4.85;2.55;;;11.50;93.50;;;;;;6153074;28;20495;-79
2023/03/22 08:27:54;;;;;;;4.30;2.40;;;11.60;93.20;;;;;;6149961;28;20058;-79
2023/03/22 08:30:56;;;;;;;5.03;2.58;;;11.60;93.00;;;;;;6148179;28;20407;-80
2023/03/22 08:34:00;;;;;;;6.00;2.30;;;11.70;92.60;;;;;;6148950;28;20511;-80
2023/03/22 08:37:04;;;;;;;5.97;2.50;;;11.80;92.60;;;;;;6149159;29;20497;-80
2023/03/22 08:40:09;;;;;;;4.18;2.30;;;11.90;92.20;;;;;;6148494;28;20055;-80
2023/03/22 08:43:11;;;;;;;3.60;1.83;;;12.00;92.00;;;;;;6149083;28;20051;-79
2023/03/22 08:46:12;;;;;;;4.88;1.58;;;12.10;91.40;;;;;;6148875;28;20055;-78
2023/03/22 08:49:16;;;;;;;5.22;2.00;;;12.20;90.60;;;;;;6148886;28;20492;-78
2023/03/22 08:52:18;;;;;;;5.00;1.70;;;12.40;90.50;;;;;;6147140;28;20051;-79
2023/03/22 08:55:20;;;;;;;4.25;2.05;;;12.40;90.10;;;;;;6148327;29;20047;-78
2023/03/22 08:58:22;;;;;;;4.32;1.50;;;12.50;90.20;;;;;;6148658;28;20477;-76
2023/03/22 09:01:25;;;;;;;4.75;1.70;;;12.60;90.10;;;;;;6148098;28;20047;-78
2023/03/22 09:04:28;;;;;;;3.08;1.50;;;12.70;90.30;;;;;;6148524;29;20058;-78
2023/03/22 09:07:30;;;;;;;3.40;1.33;;;12.80;90.10;;;;;;6148340;28;20058;-77
2023/03/22 09:10:32;;;;;;;4.32;1.65;;;12.90;90.10;;;;;;6148947;28;20055;-78
2023/03/22 09:13:34;;;;;;;3.47;1.50;;;12.90;90.20;;;;;;6148532;28;20146;-78
2023/03/22 09:16:36;;;;;;;3.25;1.50;;;13.10;90.80;;;;;;6148107;28;20100;-79
2023/03/22 09:19:39;;;;;;;3.88;1.15;;;13.20;90.40;;;;;;6148316;29;20055;-79
2023/03/22 09:22:41;;;;;;;2.72;1.10;;;13.40;90.20;;;;;;6148401;28;20059;-81
2023/03/22 09:25:44;;;;;;;3.33;1.00;;;13.50;90.30;;;;;;6148204;28;20054;-78
2023/03/22 09:28:46;;;;;;;3.33;1.20;;;13.50;87.90;;;;;;6148269;29;20087;-79
2023/03/22 09:31:48;;;;;;;2.17;1.00;;;13.60;88.10;;;;;;6148261;28;20311;-79
2023/03/22 09:34:51;;;;;;;2.90;1.20;;;13.70;88.00;;;;;;6148193;28;20047;-77
2023/03/22 09:37:54;;;;;;;2.95;1.15;;;13.80;88.70;;;;;;6148461;28;20051;-78
2023/03/22 09:41:01;;;;;;;4.05;1.25;;;13.90;88.60;;;;;;6147576;28;20465;-79
2023/03/22 09:44:07;;;;;;;3.13;1.30;;;14.00;89.10;;;;;;6147998;28;20047;-79
2023/03/22 09:47:17;;;;;;;2.13;1.00;;;14.00;88.70;;;;;;6147715;28;20047;-79
2023/03/22 09:50:24;;;;;;;4.05;1.42;;;14.00;90.00;;;;;;6146443;29;20091;-80
2023/03/22 09:53:29;;;;;;;2.75;1.13;;;14.00;89.20;;;;;;6130170;29;20116;-78
2023/03/22 09:56:32;;;;;;;2.80;1.05;;;14.30;88.30;;;;;;6147567;29;20050;-79
2023/03/22 09:59:42;;;;;;;3.25;1.20;;;14.30;87.80;;;;;;6147640;28;20066;-77
2023/03/22 10:02:57;;;;;;;3.55;1.20;;;14.40;85.50;;;;;;6147687;28;20404;-77
2023/03/22 10:06:04;;;;;;;3.00;1.10;;;14.50;85.00;;;;;;6148008;28;20062;-77
2023/03/22 10:09:14;;;;;;;3.75;1.30;;;14.60;86.30;;;;;;6148055;28;20071;-79
2023/03/22 10:12:24;;;;;;;2.92;1.17;;;14.60;84.80;;;;;;6147215;28;20497;-79
2023/03/22 10:15:33;;;;;;;3.47;1.00;;;14.70;84.20;;;;;;6147577;29;20054;-77
2023/03/22 10:18:38;;;;;;;4.07;0.90;;;14.80;84.50;;;;;;6147116;28;20062;-79
2023/03/22 10:21:41;;;;;;;2.50;1.08;;;14.90;83.10;;;;;;6147106;28;20083;-78
2023/03/22 10:24:46;;;;;;;2.80;1.30;;;15.00;83.20;;;;;;6148061;29;20055;-78
2023/03/22 10:27:51;;;;;;;3.60;1.08;;;15.10;82.40;;;;;;6147126;29;20062;-77
2023/03/22 10:30:56;;;;;;;3.55;1.20;;;15.10;81.80;;;;;;6147237;28;20061;-78
2023/03/22 10:34:02;;;;;;;2.58;1.10;;;15.20;81.70;;;;;;6147570;28;20058;-79
2023/03/22 10:37:07;;;;;;;3.50;1.30;;;15.20;82.00;;;;;;6147701;28;20056;-78
2023/03/22 10:40:17;;;;;;;2.60;1.00;;;15.30;81.00;;;;;;6147028;29;20126;-78
2023/03/22 10:43:23;;;;;;;2.58;1.20;;;15.40;81.30;;;;;;6146933;28;20047;-78
2023/03/22 10:46:29;;;;;;;3.45;1.20;;;15.40;81.30;;;;;;6147263;29;20062;-79
2023/03/22 10:49:36;;;;;;;3.47;1.10;;;15.50;82.30;;;;;;6145630;28;20047;-79
2023/03/22 10:52:48;;;;;;;2.65;0.85;;;15.50;81.00;;;;;;6146507;29;20412;-79
2023/03/22 10:55:50;;;;;;;2.55;0.90;;;15.60;80.90;;;;;;6147068;28;20477;-79
2023/03/22 10:58:52;;;;;;;3.30;0.90;;;15.70;79.30;;;;;;6147158;29;20058;-80
2023/03/22 11:01:55;;;;;;;2.35;0.88;;;15.80;78.60;;;;;;6146966;28;20489;-78
2023/03/22 11:05:00;;;;;;;2.30;0.88;;;15.90;75.80;;;;;;6147026;28;20047;-77
2023/03/22 11:08:05;;;;;;;2.33;0.80;;;16.00;76.10;;;;;;6151272;28;20083;-77
2023/03/22 11:11:14;;;;;;;2.92;0.90;;;16.20;75.40;;;;;;6152808;28;20051;-75
2023/03/22 11:14:23;;;;;;;3.72;0.80;;;16.30;73.40;;;;;;6110958;29;20056;-79
2023/03/22 11:17:25;;;;;;;2.13;0.80;;;16.40;72.30;;;;;;6127378;29;20056;-78
2023/03/22 11:20:28;;;;;;;2.47;0.90;;;16.60;72.00;;;;;;6126725;29;20060;-76
2023/03/22 11:23:34;;;;;;;1.58;0.77;;;16.60;70.20;;;;;;6119180;29;20047;-77
2023/03/22 11:26:37;;;;;;;2.80;0.88;;;16.60;70.50;;;;;;6128636;29;20055;-78
2023/03/22 11:29:44;;;;;;;2.55;0.80;;;16.70;70.40;;;;;;6137099;28;20056;-79
2023/03/22 11:32:46;;;;;;;1.90;0.75;;;16.90;69.80;;;;;;6155829;29;20054;-77
2023/03/22 11:35:55;;;;;;;2.33;0.80;;;17.00;69.50;;;;;;6172981;28;20446;-77
2023/03/22 11:39:01;;;;;;;1.60;0.70;;;17.10;67.50;;;;;;6173871;29;20074;-76
2023/03/22 11:42:05;;;;;;;1.75;0.63;;;17.20;67.30;;;;;;6170485;29;20102;-78
2023/03/22 11:45:10;;;;;;;3.90;0.88;;;17.30;67.40;;;;;;6155815;28;20409;-79
2023/03/22 11:48:18;;;;;;;1.67;0.70;;;17.40;67.10;;;;;;6154757;29;20054;-79
2023/03/22 11:51:29;;;;;;;3.42;0.82;;;17.50;66.60;;;;;;6154550;28;20061;-78
2023/03/22 11:54:36;;;;;;;1.77;0.65;;;17.50;66.30;;;;;;6158035;28;20066;-79
2023/03/22 11:57:38;;;;;;;2.10;0.77;;;17.60;66.30;;;;;;6156390;28;20054;-79
2023/03/22 12:00:41;;;;;;;1.60;0.60;;;17.70;66.40;;;;;;6153649;28;20054;-78
2023/03/22 12:03:56;;;;;;;2.72;0.95;;;18.00;65.30;;;;;;6154298;28;20409;-79
2023/03/22 12:07:00;;;;;;;2.00;0.82;;;18.10;64.70;;;;;;6153488;28;20054;-79
2023/03/22 12:10:11;;;;;;;1.95;0.85;;;18.20;64.70;;;;;;6153653;28;20058;-77
2023/03/22 12:13:20;;;;;;;6.75;2.85;;;18.40;62.90;;;;;;6153248;28;20047;-76
2023/03/22 12:16:26;;;;;;;5.50;2.42;;;18.60;63.70;;;;;;6153198;28;20436;-78
2023/03/22 12:19:53;;;;;;;2.13;0.70;;;18.70;62.30;;;;;;6154662;28;20047;-78
2023/03/22 12:22:56;;;;;;;2.75;0.88;;;18.70;62.70;;;;;;6154067;29;20523;-76
2023/03/22 12:26:04;;;;;;;2.33;0.70;;;18.80;61.40;;;;;;6154193;29;20058;-76
2023/03/22 12:29:17;;;;;;;1.85;0.80;;;19.10;62.80;;;;;;6154507;29;20047;-76
2023/03/22 12:32:25;;;;;;;4.03;0.90;;;19.40;62.20;;;;;;6157637;29;20051;-77
2023/03/22 12:35:30;;;;;;;2.05;0.80;;;19.70;60.40;;;;;;6159178;28;20051;-79
2023/03/22 12:38:41;;;;;;;4.18;1.00;;;19.60;59.90;;;;;;6155254;28;20051;-78
2023/03/22 12:41:48;;;;;;;1.35;0.60;;;19.40;60.30;;;;;;6163091;29;20047;-78
2023/03/22 12:44:54;;;;;;;3.25;0.80;;;19.40;59.20;;;;;;6160860;28;20043;-76
2023/03/22 12:48:04;;;;;;;2.05;0.80;;;19.20;60.70;;;;;;6157172;28;20552;-76
2023/03/22 12:51:11;;;;;;;1.83;0.70;;;19.20;60.00;;;;;;6137225;29;20050;-75
2023/03/22 12:54:25;;;;;;;3.28;0.75;;;19.40;59.20;;;;;;6154060;28;20051;-79
2023/03/22 12:57:29;;;;;;;2.85;0.90;;;19.70;57.60;;;;;;6156381;29;20055;-76
2023/03/22 13:00:35;;;;;;;;;;;19.70;59.50;;;;;;6156798;29;20065;-78
2023/03/22 13:03:44;;;;;;;1.55;0.70;;;19.80;57.60;;;;;;6155945;29;19926;-77
2023/03/22 13:06:58;;;;;;;1.20;0.60;;;20.10;57.00;;;;;;6154551;29;20047;-78
2023/03/22 13:10:42;;;;;;;2.35;0.77;;;20.30;56.90;;;;;;6154783;29;20047;-77
2023/03/22 13:13:47;;;;;;;1.73;0.80;;;20.00;56.00;;;;;;6120624;29;20054;-77
2023/03/22 13:16:54;;;;;;;2.20;0.70;;;20.00;56.40;;;;;;6152338;29;20132;-76
2023/03/22 13:20:05;;;;;;;2.53;0.85;;;20.00;57.40;;;;;;6151987;29;20047;-79
2023/03/22 13:23:27;;;;;;;1.95;0.75;;;20.10;57.80;;;;;;6152201;29;20118;-77
2023/03/22 13:26:38;;;;;;;2.10;0.80;;;20.30;56.20;;;;;;6151827;28;20051;-79
2023/03/22 13:29:42;;;;;;;1.95;0.80;;;20.70;55.90;;;;;;6150914;28;20055;-76
2023/03/22 13:32:50;;;;;;;2.35;0.80;;;21.00;54.60;;;;;;6150042;28;20051;-80
2023/03/22 13:35:56;;;;;;;1.92;0.77;;;20.80;54.50;;;;;;6149381;29;20043;-78
2023/03/22 13:39:03;;;;;;;2.17;0.80;;;21.10;54.90;;;;;;6149648;29;20066;-79
2023/03/22 13:42:18;;;;;;;2.13;0.70;;;21.40;53.10;;;;;;6149058;28;20090;-77
2023/03/22 13:45:33;;;;;;;1.98;0.75;;;21.70;51.90;;;;;;6148931;29;20055;-78
2023/03/22 13:48:51;;;;;;;2.08;0.70;;;21.90;49.70;;;;;;6155261;28;20069;-76
2023/03/22 13:51:55;;;;;;;1.92;0.70;;;21.90;50.50;;;;;;6172930;28;20050;-78
2023/03/22 13:54:58;;;;;;;1.90;0.65;;;21.80;49.30;;;;;;6149045;28;20059;-77
2023/03/22 13:58:01;;;;;;;1.85;0.70;;;21.40;49.90;;;;;;6148268;28;20186;-78
2023/03/22 14:01:06;;;;;;;3.15;0.80;;;21.50;49.30;;;;;;6148368;28;20051;-79
2023/03/22 14:04:14;;;;;;;1.60;0.70;;;21.30;50.20;;;;;;6148127;29;20055;-79
2023/03/22 14:07:24;;;;;;;2.22;0.65;;;21.10;50.20;;;;;;6139036;28;20051;-82
2023/03/22 14:10:38;;;;;;;1.30;0.52;;;21.20;50.60;;;;;;6147733;29;20513;-78
2023/03/22 14:13:46;;;;;;;1.95;0.70;;;21.60;50.20;;;;;;6148344;28;20134;-76
2023/03/22 14:16:55;;;;;;;3.90;0.68;;;22.30;49.10;;;;;;6148204;29;20055;-78
2023/03/22 14:19:58;;;;;;;2.03;0.52;;;22.60;48.10;;;;;;6148402;28;20051;-77
2023/03/22 14:23:04;;;;;;;2.22;0.70;;;22.80;48.70;;;;;;6147514;28;20493;-76
2023/03/22 14:26:12;;;;;;;2.83;0.70;;;22.40;49.10;;;;;;6147656;29;20070;-75
2023/03/22 14:29:17;;;;;;;1.80;0.70;;;22.70;48.40;;;;;;6151158;29;20058;-77
2023/03/22 14:32:28;;;;;;;2.83;0.90;;;22.70;48.70;;;;;;6147629;28;20055;-78
2023/03/22 14:35:35;;;;;;;2.58;0.70;;;23.50;47.70;;;;;;6148153;29;20048;-77
2023/03/22 14:38:41;;;;;;;1.95;0.60;;;23.90;46.10;;;;;;6149550;28;20409;-76
2023/03/22 14:42:02;;;;;;;2.50;0.70;;;23.90;45.30;;;;;;6152863;29;20055;-76
2023/03/22 14:45:13;;;;;;;2.13;0.73;;;25.10;43.50;;;;;;6152917;28;20055;-78
2023/03/22 14:48:21;;;;;;;1.58;0.57;;;25.90;43.80;;;;;;6152694;28;20051;-76
2023/03/22 14:51:29;;;;;;;2.95;0.75;;;25.10;43.20;;;;;;6151498;28;20417;-77
2023/03/22 14:54:38;;;;;;;2.80;0.80;;;24.60;43.90;;;;;;6150229;29;20149;-77
2023/03/22 14:57:48;;;;;;;2.05;0.75;;;25.80;43.50;;;;;;6151629;28;20525;-76
2023/03/22 15:00:51;;;;;;;1.55;0.55;;;28.30;41.50;;;;;;6153211;28;20055;-76
2023/03/22 15:03:59;;;;;;;1.77;0.65;;;28.10;40.80;;;;;;6153594;28;20051;-77
2023/03/22 15:07:03;;;;;;;2.70;0.50;;;30.50;39.40;;;;;;6154498;28;20055;-75
2023/03/22 15:10:15;;;;;;;2.05;0.70;;;31.70;38.30;;;;;;6154104;28;20051;-76
2023/03/22 15:13:20;;;;;;;3.65;0.70;;;31.80;37.00;;;;;;6154359;29;20536;-76
2023/03/22 15:16:23;;;;;;;1.70;0.70;;;34.20;35.90;;;;;;6153984;29;20504;-77
2023/03/22 15:19:34;;;;;;;1.80;0.70;;;34.60;34.20;;;;;;6154812;29;20055;-77
2023/03/22 15:22:38;;;;;;;1.90;0.80;;;33.40;34.10;;;;;;6154336;29;20523;-76
2023/03/22 15:25:40;;;;;;;2.88;0.80;;;33.40;34.10;;;;;;6154643;29;20055;-76
2023/03/22 15:28:45;;;;;;;1.75;0.70;;;35.20;33.10;;;;;;6154490;28;20065;-79
2023/03/22 15:31:47;;;;;;;1.92;0.77;;;35.40;33.30;;;;;;6153743;28;20055;-77
2023/03/22 15:34:53;;;;;;;2.92;0.80;;;36.10;33.00;;;;;;6154157;28;20493;-76
2023/03/22 15:37:57;;;;;;;3.35;0.80;;;35.00;32.60;;;;;;6155736;29;20047;-77
2023/03/22 15:41:01;;;;;;;2.38;0.80;;;32.10;32.60;;;;;;6154017;28;20047;-77
2023/03/22 15:44:13;;;;;;;2.03;0.75;;;32.70;33.70;;;;;;6155486;29;20047;-75
2023/03/22 15:47:18;;;;;;;3.15;0.75;;;32.60;34.20;;;;;;6155141;28;20182;-77
2023/03/22 15:50:23;;;;;;;1.45;0.70;;;32.50;33.50;;;;;;6153918;28;20059;-78
2023/03/22 15:53:31;;;;;;;3.00;0.90;;;31.90;34.00;;;;;;6149317;28;20500;-77
2023/03/22 15:56:36;;;;;;;2.92;1.10;;;30.40;34.90;;;;;;6153272;29;20051;-77
2023/03/22 15:59:54;;;;;;;2.35;0.95;;;28.40;37.40;;;;;;6155506;28;20058;-77
2023/03/22 16:02:59;;;;;;;1.90;0.85;;;27.90;38.20;;;;;;6152350;28;20058;-77
2023/03/22 16:06:03;;;;;;;1.88;0.93;;;28.20;38.40;;;;;;6127675;29;20059;-77
2023/03/22 16:09:04;;;;;;;2.38;1.08;;;28.10;38.60;;;;;;6134332;29;20472;-76
2023/03/22 16:12:07;;;;;;;2.70;1.20;;;28.20;39.20;;;;;;6150509;29;20596;-75
2023/03/22 16:15:15;;;;;;;3.50;1.45;;;27.40;38.10;;;;;;6149370;28;20043;-76
2023/03/22 16:18:20;;;;;;;3.25;1.50;;;26.60;39.50;;;;;;6151212;29;20066;-80
2023/03/22 16:21:29;;;;;;;5.95;2.08;;;26.40;39.40;;;;;;6150752;29;20051;-78
2023/03/22 16:24:31;;;;;;;3.58;1.83;;;25.50;40.10;;;;;;6149898;28;20058;-78
2023/03/22 16:27:34;;;;;;;5.68;2.00;;;25.00;41.10;;;;;;6150553;28;20227;-78
2023/03/22 16:30:37;;;;;;;3.60;1.40;;;24.60;42.20;;;;;;6148855;28;20050;-77
2023/03/22 16:33:39;;;;;;;2.28;1.00;;;24.00;42.70;;;;;;6148850;28;20048;-76
2023/03/22 16:36:42;;;;;;;2.50;1.10;;;23.70;42.90;;;;;;6148777;28;20054;-75
2023/03/22 16:39:44;;;;;;;;;;;23.30;43.70;;;;;;6160952;28;20051;-77
2023/03/22 16:42:47;;;;;;;11.57;4.95;;;22.90;44.50;;;;;;6168626;28;19934;-75
2023/03/22 16:45:48;;;;;;;6.23;1.50;;;22.60;45.00;;;;;;6161859;28;20062;-76
2023/03/22 16:48:50;;;;;;;2.53;0.90;;;22.30;45.60;;;;;;6165188;29;20172;-78
2023/03/22 16:51:54;;;;;;;3.00;1.02;;;22.00;46.20;;;;;;6168503;28;20065;-78
2023/03/22 16:54:55;;;;;;;;;;;21.70;46.80;;;;;;6162322;28;20417;-78
2023/03/22 16:57:57;;;;;;;2.50;0.88;;;21.60;47.30;;;;;;6148015;28;20372;-78
2023/03/22 17:00:59;;;;;;;3.63;1.20;;;21.40;47.50;;;;;;6153564;28;20199;-76
2023/03/22 17:04:02;;;;;;;2.42;1.00;;;21.30;47.60;;;;;;6169921;28;20050;-79
2023/03/22 17:07:12;;;;;;;3.28;0.90;;;21.20;48.00;;;;;;6157376;28;20079;-77
2023/03/22 17:10:14;;;;;;;2.40;1.10;;;21.00;48.70;;;;;;6150271;28;20043;-77
2023/03/22 17:13:16;;;;;;;3.13;1.13;;;20.80;49.10;;;;;;6148553;28;20609;-75
2023/03/22 17:16:19;;;;;;;3.53;1.10;;;20.60;49.40;;;;;;6148116;29;20231;-79
2023/03/22 17:19:21;;;;;;;2.63;0.97;;;20.40;49.60;;;;;;6149867;28;20047;-79
2023/03/22 17:22:24;;;;;;;3.47;1.15;;;20.00;50.20;;;;;;6148764;28;20055;-77
2023/03/22 17:25:29;;;;;;;2.60;1.00;;;19.80;51.00;;;;;;6149011;28;20058;-76
2023/03/22 17:28:32;;;;;;;4.75;1.10;;;19.70;51.20;;;;;;6147395;28;20047;-78
2023/03/22 17:31:35;;;;;;;2.95;0.93;;;19.60;51.40;;;;;;6148342;28;20137;-79
2023/03/22 17:34:39;;;;;;;3.67;1.13;;;19.40;51.70;;;;;;6164663;28;20583;-79
2023/03/22 17:37:43;;;;;;;3.67;1.20;;;19.30;51.60;;;;;;6173630;28;20480;-77
2023/03/22 17:40:45;;;;;;;2.58;1.17;;;19.10;52.60;;;;;;6158782;28;20062;-78
2023/03/22 17:43:47;;;;;;;9.85;5.35;;;19.00;52.20;;;;;;6149186;28;20058;-80
2023/03/22 17:46:48;;;;;;;5.07;2.33;;;18.90;53.00;;;;;;6148822;28;20137;-80
2023/03/22 17:49:51;;;;;;;5.00;1.80;;;18.70;53.70;;;;;;6148105;28;20393;-79
2023/03/22 17:52:54;;;;;;;4.30;1.70;;;18.60;54.30;;;;;;6148673;28;20062;-80
2023/03/22 17:55:56;;;;;;;3.03;1.30;;;18.50;54.50;;;;;;6148833;28;20047;-79
2023/03/22 17:58:58;;;;;;;3.92;1.30;;;18.30;55.00;;;;;;6146544;28;20397;-76
2023/03/22 18:02:00;;;;;;;3.70;1.40;;;18.20;54.80;;;;;;6149588;29;20070;-78
2023/03/22 18:05:02;;;;;;;3.10;1.30;;;18.20;54.50;;;;;;6148208;28;20417;-77
2023/03/22 18:08:06;;;;;;;4.03;1.40;;;18.10;54.40;;;;;;6143596;28;20409;-76
2023/03/22 18:11:08;;;;;;;4.00;1.20;;;18.00;55.10;;;;;;6146764;28;20054;-77
2023/03/22 18:14:10;;;;;;;2.47;1.00;;;18.00;54.60;;;;;;6159476;28;20051;-78
2023/03/22 18:17:12;;;;;;;2.65;1.02;;;17.90;54.40;;;;;;6161752;28;20060;-77
2023/03/22 18:20:18;;;;;;;2.85;1.15;;;17.90;54.20;;;;;;6152839;28;20052;-79
2023/03/22 18:23:21;;;;;;;2.50;1.10;;;17.80;54.70;;;;;;6140068;29;20047;-78
2023/03/22 18:26:26;;;;;;;3.20;1.20;;;17.70;53.90;;;;;;6147942;28;20051;-75
2023/03/22 18:29:29;;;;;;;4.15;1.35;;;17.70;54.40;;;;;;6155613;28;20047;-78
2023/03/22 18:32:31;;;;;;;6.35;2.42;;;17.60;54.10;;;;;;6152771;28;20062;-79
2023/03/22 18:35:33;;;;;;;2.90;1.23;;;17.60;54.20;;;;;;6152318;28;20066;-78
2023/03/22 18:38:37;;;;;;;4.38;1.30;;;17.50;54.20;;;;;;6152844;28;20121;-76
2023/03/22 18:41:39;;;;;;;3.53;1.02;;;17.50;54.00;;;;;;6150658;28;20408;-77
2023/03/22 18:44:42;;;;;;;3.28;1.20;;;17.40;53.90;;;;;;6156254;28;20055;-78
2023/03/22 18:47:44;;;;;;;3.97;1.20;;;17.30;54.50;;;;;;6151147;28;20053;-76
2023/03/22 18:50:46;;;;;;;3.67;1.33;;;17.30;53.80;;;;;;6151420;28;20412;-79
2023/03/22 18:53:49;;;;;;;2.65;1.10;;;17.30;53.70;;;;;;6145035;28;20051;-76
2023/03/22 18:56:51;;;;;;;3.65;1.20;;;17.20;53.40;;;;;;6149026;28;20074;-76
2023/03/22 18:59:53;;;;;;;3.08;1.30;;;17.20;53.30;;;;;;6149670;28;20051;-75
2023/03/22 19:02:55;;;;;;;3.97;1.30;;;17.10;53.20;;;;;;6152234;29;20055;-77
2023/03/22 19:06:04;;;;;;;2.47;1.20;;;17.10;53.10;;;;;;6153856;28;20518;-75
2023/03/22 19:09:07;;;;;;;4.25;1.20;;;17.10;53.10;;;;;;6150359;28;20051;-79
2023/03/22 19:12:10;;;;;;;2.83;1.17;;;17.00;53.00;;;;;;6151094;28;20051;-78
2023/03/22 19:15:12;;;;;;;1.92;1.00;;;17.00;53.00;;;;;;6150589;28;20386;-78
2023/03/22 19:18:14;;;;;;;4.10;1.23;;;17.00;53.10;;;;;;6151613;28;20056;-76
2023/03/22 19:21:16;;;;;;;4.03;1.35;;;17.00;53.20;;;;;;6151479;29;20055;-79
2023/03/22 19:24:19;;;;;;;3.55;1.30;;;16.90;53.60;;;;;;6151493;29;20053;-78
2023/03/22 19:27:21;;;;;;;3.60;1.42;;;16.90;53.10;;;;;;6148959;28;20054;-77
2023/03/22 19:30:23;;;;;;;3.05;1.00;;;16.90;53.00;;;;;;6151726;28;20426;-77
2023/03/22 19:33:25;;;;;;;2.88;1.10;;;16.90;53.10;;;;;;6147921;28;20819;-78
2023/03/22 19:36:27;;;;;;;2.63;1.10;;;16.80;53.30;;;;;;6153267;28;20039;-80
2023/03/22 19:39:31;;;;;;;2.60;1.10;;;16.80;54.20;;;;;;6151934;28;20075;-78
2023/03/22 19:42:33;;;;;;;2.05;1.02;;;16.80;53.80;;;;;;6151501;28;20059;-79
2023/03/22 19:45:35;;;;;;;3.75;1.08;;;16.70;53.90;;;;;;6149069;28;20054;-80
2023/03/22 19:48:38;;;;;;;2.60;1.00;;;16.80;54.10;;;;;;6138723;28;20050;-77
2023/03/22 19:51:40;;;;;;;3.75;1.08;;;16.70;54.50;;;;;;6150335;28;20054;-79
2023/03/22 19:54:43;;;;;;;4.45;1.70;;;16.70;54.70;;;;;;6150203;28;20046;-80
2023/03/22 19:57:45;;;;;;;5.28;2.85;;;16.80;55.30;;;;;;6148731;28;20043;-78
2023/03/22 20:00:49;;;;;;;2.83;1.08;;;16.80;55.20;;;;;;6151308;28;20529;-82
2023/03/22 20:03:52;;;;;;;;;;;16.70;55.50;;;;;;6152521;28;20543;-80
2023/03/22 20:06:54;;;;;;;4.43;1.20;;;16.60;55.10;;;;;;6151630;28;19922;-79
2023/03/22 20:09:58;;;;;;;2.47;1.10;;;16.50;55.30;;;;;;6151923;28;20055;-80
2023/03/22 20:13:03;;;;;;;3.05;1.30;;;16.50;55.80;;;;;;6150860;28;20078;-81
2023/03/22 20:16:06;;;;;;;3.33;1.38;;;16.50;55.50;;;;;;6153239;29;20051;-81
2023/03/22 20:19:08;;;;;;;3.55;1.55;;;16.50;57.20;;;;;;6155043;28;20058;-81
2023/03/22 20:22:10;;;;;;;3.58;1.70;;;16.50;55.70;;;;;;6151406;29;20051;-82
2023/03/22 20:25:13;;;;;;;4.35;2.03;;;16.40;55.70;;;;;;6152723;28;20055;-81
2023/03/22 20:28:15;;;;;;;2.75;1.45;;;16.40;55.60;;;;;;6149750;28;20159;-81
2023/03/22 20:31:17;;;;;;;3.25;1.40;;;16.40;55.60;;;;;;6149121;28;20397;-75
2023/03/22 20:34:19;;;;;;;3.88;1.42;;;16.40;55.70;;;;;;6151252;28;20043;-77
2023/03/22 20:37:22;;;;;;;3.80;1.40;;;16.30;57.70;;;;;;6149925;28;20095;-77
2023/03/22 20:40:26;;;;;;;4.25;1.70;;;16.30;57.70;;;;;;6149549;28;20477;-79
2023/03/22 20:43:28;;;;;;;5.15;1.45;;;16.30;57.80;;;;;;6148111;29;20047;-77
2023/03/22 20:46:30;;;;;;;4.97;1.90;;;16.30;57.20;;;;;;6151374;29;20047;-77
2023/03/22 20:49:32;;;;;;;4.30;1.90;;;16.20;59.20;;;;;;6150811;29;20051;-80
2023/03/22 20:52:34;;;;;;;6.22;1.85;;;16.20;57.20;;;;;;6146500;28;20507;-82
2023/03/22 20:55:38;;;;;;;4.03;1.67;;;16.20;57.20;;;;;;6140702;28;20047;-81
2023/03/22 20:58:40;;;;;;;4.10;1.70;;;16.10;59.10;;;;;;6158999;28;20556;-81
2023/03/22 21:01:42;;;;;;;3.50;1.55;;;16.10;58.20;;;;;;6149270;29;20055;-82
2023/03/22 21:04:45;;;;;;;4.13;1.58;;;16.00;59.20;;;;;;6150557;28;20055;-80
2023/03/22 21:07:47;;;;;;;3.70;1.67;;;16.00;57.70;;;;;;6150644;29;20051;-81
2023/03/22 21:10:51;;;;;;;5.07;1.83;;;16.00;58.10;;;;;;6149324;29;20055;-82
2023/03/22 21:13:53;;;;;;;6.05;1.90;;;16.00;58.00;;;;;;6150432;29;20058;-82
2023/03/22 21:16:55;;;;;;;4.70;2.15;;;16.00;58.30;;;;;;6149322;28;20066;-80
2023/03/22 21:19:57;;;;;;;3.40;1.52;;;15.90;58.60;;;;;;6149091;29;20055;-80
2023/03/22 21:22:59;;;;;;;4.57;1.73;;;15.80;60.20;;;;;;6149955;28;20059;-80
2023/03/22 21:26:02;;;;;;;4.55;1.67;;;15.80;59.40;;;;;;6149785;29;20055;-80
2023/03/22 21:29:05;;;;;;;;;;;15.70;59.40;;;;;;6149494;28;20055;-81
2023/03/22 21:32:08;;;;;;;3.90;1.77;;;15.70;60.00;;;;;;6150110;29;20041;-81
2023/03/22 21:35:12;;;;;;;6.72;1.90;;;15.70;60.20;;;;;;6149403;29;20061;-83
2023/03/22 21:38:17;;;;;;;4.63;2.10;;;15.70;60.40;;;;;;6149365;29;20055;-81
2023/03/22 21:41:21;;;;;;;6.40;1.98;;;15.70;60.50;;;;;;6145329;28;20051;-78
2023/03/22 21:44:23;;;;;;;3.63;2.03;;;15.60;60.50;;;;;;6157298;28;20055;-82
2023/03/22 21:47:28;;;;;;;5.47;1.70;;;15.60;60.90;;;;;;6135337;28;20058;-81
2023/03/22 21:50:31;;;;;;;6.30;2.00;;;15.50;60.80;;;;;;6150210;28;20054;-80
2023/03/22 21:53:33;;;;;;;3.92;1.77;;;15.50;61.20;;;;;;6148022;29;20493;-81
2023/03/22 21:56:36;;;;;;;4.10;1.70;;;15.40;61.10;;;;;;6146333;29;20527;-80
2023/03/22 21:59:39;;;;;;;4.20;1.90;;;15.40;61.20;;;;;;6148671;28;20409;-80
2023/03/22 22:02:41;;;;;;;3.47;1.70;;;15.40;61.50;;;;;;6148840;28;20056;-80
2023/03/22 22:05:48;;;;;;;3.72;1.65;;;15.30;61.60;;;;;;6148885;28;20055;-78
2023/03/22 22:08:51;;;;;;;3.75;1.70;;;15.30;61.80;;;;;;6148091;29;20170;-81
2023/03/22 22:11:54;;;;;;;3.75;1.75;;;15.20;61.70;;;;;;6148705;28;20051;-80
2023/03/22 22:14:56;;;;;;;4.60;1.65;;;15.20;62.00;;;;;;6147929;28;20059;-80
2023/03/22 22:17:58;;;;;;;4.15;1.60;;;15.20;62.00;;;;;;6148780;29;20054;-79
2023/03/22 22:21:02;;;;;;;4.07;1.95;;;15.20;62.10;;;;;;6146653;28;20059;-81
2023/03/22 22:24:05;;;;;;;4.68;1.90;;;15.20;62.20;;;;;;6159880;28;20051;-80
2023/03/22 22:27:08;;;;;;;3.17;1.40;;;15.20;62.20;;;;;;6160120;29;20059;-81
2023/03/22 22:30:13;;;;;;;5.43;1.90;;;15.20;62.30;;;;;;6172583;28;20039;-81
2023/03/22 22:33:15;;;;;;;5.82;1.90;;;15.20;62.40;;;;;;6170863;28;20059;-82
2023/03/22 22:36:31;;;;;;;4.97;1.80;;;15.20;62.40;;;;;;6156473;28;20055;-82
2023/03/22 22:39:33;;;;;;;3.47;1.90;;;15.20;62.60;;;;;;6153466;29;20174;-81
2023/03/22 22:42:36;;;;;;;4.68;1.80;;;15.20;62.50;;;;;;6156805;28;20469;-80
2023/03/22 22:45:38;;;;;;;4.13;1.80;;;15.20;62.60;;;;;;6132054;28;20057;-82
2023/03/22 22:48:42;;;;;;;3.58;1.75;;;15.20;63.50;;;;;;6151194;29;20051;-78
2023/03/22 22:51:44;;;;;;;5.28;1.90;;;15.20;62.90;;;;;;6152122;29;20063;-81
2023/03/22 22:54:46;;;;;;;4.57;1.70;;;15.20;62.90;;;;;;6151556;28;20138;-82
2023/03/22 22:57:49;;;;;;;5.70;1.70;;;15.20;62.90;;;;;;6151334;28;20055;-83
